Time;durP1;ratioP1;P1;durP2;ratioP2;P2;SDS_P1;SDS_P2;PMS_P1;PMS_P2;Temp;Humidity;BMP_temperature;BMP_pressure;BME280_temperature;BME280_humidity;BME280_pressure;Samples;Min_cycle;Max_cycle;Signal;HPM_P1;HPM_P2
2023/01/07 00:01:19;;;;;;;13.43;7.78;;;;;;;0.80;66.59;93282.75;2053750;69;20188;-73
2023/01/07 00:03:45;;;;;;;14.40;5.93;;;;;;;0.77;66.74;93284.56;2051776;70;20473;-73
2023/01/07 00:06:16;;;;;;;13.27;6.85;;;;;;;0.77;66.54;93283.81;2053029;69;20150;-73
2023/01/07 00:08:44;;;;;;;16.20;7.57;;;;;;;0.65;66.32;93277.75;2051337;69;20225;-74
2023/01/07 00:11:23;;;;;;;14.02;6.70;;;;;;;0.68;66.50;93278.69;2050997;69;20257;-73
2023/01/07 00:13:50;;;;;;;12.55;6.50;;;;;;;0.66;66.21;93279.25;2052530;70;20637;-73
2023/01/07 00:16:20;;;;;;;16.33;7.45;;;;;;;0.55;66.68;93260.06;2054342;69;20240;-73
2023/01/07 00:18:46;;;;;;;11.38;6.68;;;;;;;0.53;66.77;93267.41;2054256;69;20146;-74
2023/01/07 00:21:15;;;;;;;13.05;6.07;;;;;;;0.49;66.75;93262.91;2054069;69;20269;-73
2023/01/07 00:23:41;;;;;;;11.77;6.25;;;;;;;0.71;66.63;93261.75;2050862;70;20154;-74
2023/01/07 00:26:10;;;;;;;11.98;5.32;;;;;;;0.65;65.51;93255.59;2051507;70;20139;-73
2023/01/07 00:28:39;;;;;;;12.50;5.60;;;;;;;0.64;66.90;93258.88;2054148;69;20221;-73
2023/01/07 00:31:12;;;;;;;12.57;6.25;;;;;;;0.62;66.07;93251.09;2051466;69;20252;-73
2023/01/07 00:33:47;;;;;;;;;;;;;;;0.66;66.63;93254.28;2054182;70;20165;-72
2023/01/07 00:36:13;;;;;;;12.85;6.38;;;;;;;0.58;65.39;93256.22;2054500;69;20066;-72
2023/01/07 00:38:38;;;;;;;14.35;6.05;;;;;;;0.61;66.14;93259.94;2054621;69;20161;-75
2023/01/07 00:41:04;;;;;;;11.20;6.30;;;;;;;0.58;66.20;93256.22;2053742;70;20145;-72
2023/01/07 00:43:31;;;;;;;13.23;7.15;;;;;;;0.59;66.83;93254.94;2053838;69;20216;-73
2023/01/07 00:45:57;;;;;;;9.82;5.57;;;;;;;0.71;66.42;93250.66;2052379;69;20147;-74
2023/01/07 00:48:24;;;;;;;13.68;5.63;;;;;;;0.53;66.15;93243.22;2052608;69;20160;-75
2023/01/07 00:50:52;;;;;;;12.45;5.22;;;;;;;0.64;66.21;93245.78;2054608;69;20540;-73
2023/01/07 00:53:17;;;;;;;8.48;4.78;;;;;;;0.53;66.74;93232.13;2053563;69;20242;-72
2023/01/07 00:55:43;;;;;;;9.70;5.10;;;;;;;0.54;66.13;93233.63;2053648;70;20170;-71
2023/01/07 00:58:14;;;;;;;13.25;5.90;;;;;;;0.33;67.56;93230.75;2053479;69;20197;-74
2023/01/07 01:00:41;;;;;;;11.60;6.50;;;;;;;0.39;66.69;93234.16;2053511;69;20582;-73
2023/01/07 01:03:07;;;;;;;13.05;6.63;;;;;;;0.52;67.22;93225.09;2053036;69;20575;-74
2023/01/07 01:05:33;;;;;;;11.45;5.68;;;;;;;0.36;66.51;93226.16;2053693;70;20241;-72
2023/01/07 01:07:59;;;;;;;12.25;6.18;;;;;;;0.47;67.09;93234.28;2051056;70;20146;-71
2023/01/07 01:10:24;;;;;;;11.10;6.40;;;;;;;0.40;67.01;93232.13;2053411;69;20149;-73
2023/01/07 01:12:50;;;;;;;12.65;6.13;;;;;;;0.44;67.43;93221.47;2052455;69;20515;-72
2023/01/07 01:15:16;;;;;;;9.40;5.40;;;;;;;0.54;67.67;93219.75;2050478;69;20190;-72
2023/01/07 01:17:42;;;;;;;10.57;5.50;;;;;;;0.66;67.72;93218.28;2054354;69;20487;-73
2023/01/07 01:20:12;;;;;;;12.15;5.60;;;;;;;0.75;66.79;93215.06;2054216;69;20259;-73
2023/01/07 01:22:38;;;;;;;10.73;4.95;;;;;;;0.83;66.23;93206.13;2054044;69;20154;-72
2023/01/07 01:25:04;;;;;;;10.07;5.30;;;;;;;0.79;66.27;93214.00;2053142;70;20143;-71
2023/01/07 01:27:30;;;;;;;10.68;5.22;;;;;;;0.61;67.15;93207.31;2051105;70;20197;-73
2023/01/07 01:29:57;;;;;;;12.57;5.70;;;;;;;0.65;66.81;93204.97;2050999;70;20193;-73
2023/01/07 01:32:24;;;;;;;9.68;5.50;;;;;;;0.56;66.50;93208.91;2051511;70;20172;-72
2023/01/07 01:34:50;;;;;;;10.52;5.40;;;;;;;0.62;66.60;93201.22;2053811;69;20217;-72
2023/01/07 01:37:16;;;;;;;11.18;5.22;;;;;;;0.60;66.58;93206.56;2053389;70;20145;-72
2023/01/07 01:39:42;;;;;;;9.95;4.93;;;;;;;0.70;65.76;93199.31;2053374;69;20213;-72
2023/01/07 01:42:21;;;;;;;9.07;4.18;;;;;;;0.69;66.28;93195.03;2053430;69;20276;-72
2023/01/07 01:44:53;;;;;;;11.70;4.15;;;;;;;0.65;66.39;93200.16;2052785;69;20232;-71
2023/01/07 01:47:52;;;;;;;8.75;3.53;;;;;;;0.71;66.07;93192.47;2050389;70;20234;-72
2023/01/07 01:50:34;;;;;;;8.00;3.97;;;;;;;0.81;65.80;93190.00;2047678;70;20145;-72
2023/01/07 01:53:27;;;;;;;5.00;2.85;;;;;;;1.04;64.73;93183.97;2053364;70;20170;-72
2023/01/07 01:56:00;;;;;;;6.78;3.05;;;;;;;0.73;66.07;93184.38;2052121;69;20232;-72
2023/01/07 01:58:32;;;;;;;;;;;;;;;1.07;64.85;93191.25;2050451;69;20309;-72
2023/01/07 02:00:58;;;;;;;7.30;3.55;;;;;;;0.70;66.35;93190.25;2050439;70;20093;-72
2023/01/07 02:03:27;;;;;;;6.85;3.20;;;;;;;0.80;65.25;93188.50;2052731;70;20142;-72
2023/01/07 02:05:53;;;;;;;7.90;3.80;;;;;;;0.72;65.44;93185.63;2051667;70;20170;-73
2023/01/07 02:08:21;;;;;;;5.85;3.70;;;;;;;0.84;65.62;93183.41;2053709;70;20138;-73
2023/01/07 02:11:10;;;;;;;5.13;3.03;;;;;;;0.72;65.11;93188.41;2047986;70;20605;-73
2023/01/07 02:14:02;;;;;;;4.72;2.70;;;;;;;1.00;64.40;93181.53;2050383;70;20146;-73
2023/01/07 02:16:37;;;;;;;7.68;3.40;;;;;;;0.94;64.05;93181.66;2053627;70;20609;-72
2023/01/07 02:19:16;;;;;;;5.93;2.75;;;;;;;0.86;64.84;93178.03;2053224;69;20185;-73
2023/01/07 02:21:50;;;;;;;6.43;2.78;;;;;;;0.86;64.47;93185.63;2055503;69;20148;-72
2023/01/07 02:24:38;;;;;;;4.90;2.80;;;;;;;0.91;64.05;93179.94;2053473;69;20497;-71
2023/01/07 02:27:18;;;;;;;5.53;2.90;;;;;;;0.66;64.83;93181.50;2053527;70;20181;-71
2023/01/07 02:30:31;;;;;;;5.80;2.83;;;;;;;0.68;65.52;93184.47;2053557;69;20255;-72
2023/01/07 02:33:00;;;;;;;;;;;;;;;0.77;65.19;93178.50;2052982;70;20479;-70
2023/01/07 02:35:51;;;;;;;9.30;3.40;;;;;;;0.65;65.17;93177.25;2050428;70;20148;-71
2023/01/07 02:38:26;;;;;;;6.35;3.25;;;;;;;0.58;65.01;93175.13;2050053;70;20180;-71
2023/01/07 02:41:07;;;;;;;6.47;3.13;;;;;;;0.66;65.60;93170.41;2051914;70;20168;-72
2023/01/07 02:43:48;;;;;;;8.10;3.28;;;;;;;0.61;64.92;93172.03;2052936;69;20634;-72
2023/01/07 02:46:39;;;;;;;5.68;2.75;;;;;;;0.78;64.61;93171.69;2052087;69;20625;-72
2023/01/07 02:49:12;;;;;;;5.28;2.60;;;;;;;0.75;64.30;93159.63;2053513;70;20228;-72
2023/01/07 02:51:40;;;;;;;5.93;2.80;;;;;;;0.88;64.38;93163.66;2053311;70;20153;-73
2023/01/07 02:54:11;;;;;;;7.15;3.00;;;;;;;0.79;64.39;93159.31;2053446;70;20232;-72
2023/01/07 02:56:49;;;;;;;7.35;3.65;;;;;;;0.49;65.21;93165.22;2049013;70;20131;-73
2023/01/07 02:59:30;;;;;;;4.68;2.85;;;;;;;0.55;65.08;93165.88;2050210;70;20169;-72
2023/01/07 03:01:55;;;;;;;9.20;3.53;;;;;;;0.52;64.65;93169.69;2050982;69;20162;-72
2023/01/07 03:04:30;;;;;;;6.20;3.10;;;;;;;0.50;64.95;93156.38;2054120;69;20130;-73
2023/01/07 03:07:08;;;;;;;7.38;3.20;;;;;;;0.51;65.33;93154.34;2053984;69;20200;-71
2023/01/07 03:10:16;;;;;;;7.55;3.17;;;;;;;0.33;66.51;93150.44;2053130;70;20134;-72
2023/01/07 03:12:48;;;;;;;6.28;3.90;;;;;;;0.47;66.03;93145.63;2043533;70;20146;-72
2023/01/07 03:15:24;;;;;;;5.93;3.70;;;;;;;0.45;65.61;93146.13;2046883;70;20685;-73
2023/01/07 03:18:06;;;;;;;9.30;4.00;;;;;;;0.53;66.07;93139.97;2046359;70;20525;-72
2023/01/07 03:20:36;;;;;;;10.73;3.80;;;;;;;0.56;65.54;93142.41;2046615;70;20229;-72
2023/01/07 03:23:09;;;;;;;6.38;4.15;;;;;;;0.49;65.82;93145.81;2046315;70;20225;-72
2023/01/07 03:25:39;;;;;;;7.88;3.63;;;;;;;0.44;66.30;93138.38;2045950;70;20170;-73
2023/01/07 03:28:08;;;;;;;6.60;3.47;;;;;;;0.63;65.20;93143.78;2045804;70;20239;-72
2023/01/07 03:30:35;;;;;;;5.55;3.70;;;;;;;0.62;65.52;93140.25;2043354;70;20174;-73
2023/01/07 03:33:07;;;;;;;7.63;3.75;;;;;;;0.62;64.79;93134.72;2043870;70;20171;-74
2023/01/07 03:35:35;;;;;;;6.90;3.05;;;;;;;0.53;66.21;93135.16;2046104;70;20274;-74
2023/01/07 03:38:03;;;;;;;7.95;3.30;;;;;;;0.55;65.25;93129.84;2046534;70;20237;-73
2023/01/07 03:40:30;;;;;;;8.60;3.10;;;;;;;0.60;65.26;93136.56;2046191;70;20139;-74
2023/01/07 03:42:58;;;;;;;8.57;2.83;;;;;;;0.56;64.94;93134.09;2045752;70;20246;-73
2023/01/07 03:45:26;;;;;;;4.80;2.83;;;;;;;0.34;65.77;93121.44;2045307;70;20155;-72
2023/01/07 03:47:55;;;;;;;5.85;3.20;;;;;;;0.46;65.99;93138.59;2043541;70;20146;-73
2023/01/07 03:50:23;;;;;;;5.75;3.08;;;;;;;0.50;65.47;93139.00;2050256;69;20189;-72
2023/01/07 03:52:50;;;;;;;6.75;3.22;;;;;;;0.39;66.28;93134.44;2052192;70;20253;-73
2023/01/07 03:55:17;;;;;;;5.47;2.95;;;;;;;0.32;65.86;93134.31;2053236;70;20150;-72
2023/01/07 03:57:44;;;;;;;6.13;3.53;;;;;;;0.19;66.22;93127.53;2052454;69;20150;-71
2023/01/07 04:00:13;;;;;;;6.25;3.10;;;;;;;0.24;66.45;93123.91;2053751;69;20178;-72
2023/01/07 04:02:49;;;;;;;5.65;3.38;;;;;;;0.30;65.85;93111.97;2052297;69;20593;-71
2023/01/07 04:05:22;;;;;;;5.93;3.25;;;;;;;0.29;66.01;93121.56;2053460;70;20150;-72
2023/01/07 04:07:48;;;;;;;7.07;3.30;;;;;;;0.44;65.88;93110.66;2051167;69;20708;-73
2023/01/07 04:10:13;;;;;;;6.70;3.08;;;;;;;0.42;65.50;93105.66;2051956;70;20613;-72
2023/01/07 04:12:40;;;;;;;7.07;2.85;;;;;;;0.39;65.50;93103.97;2053589;69;20162;-72
2023/01/07 04:15:06;;;;;;;5.72;3.40;;;;;;;0.41;66.04;93101.41;2052029;69;20253;-72
2023/01/07 04:17:32;;;;;;;6.28;3.15;;;;;;;0.25;65.76;93072.03;2053107;69;20527;-72
2023/01/07 04:19:58;;;;;;;5.38;2.88;;;;;;;0.40;64.53;93094.38;2051029;70;20240;-73
2023/01/07 04:22:24;;;;;;;6.15;2.72;;;;;;;0.48;65.35;93097.25;2053317;69;20196;-72
2023/01/07 04:24:49;;;;;;;4.38;2.40;;;;;;;0.25;65.02;93094.94;2053687;69;20244;-72
2023/01/07 04:27:16;;;;;;;4.25;2.58;;;;;;;0.22;65.85;93092.47;2053519;70;20244;-73
2023/01/07 04:29:42;;;;;;;5.45;3.25;;;;;;;0.17;66.51;93090.56;2052462;69;20166;-73
2023/01/07 04:32:08;;;;;;;5.10;2.85;;;;;;;0.16;65.72;93100.16;2051864;70;20189;-72
2023/01/07 04:34:34;;;;;;;8.10;2.75;;;;;;;0.11;65.66;93093.44;2053553;69;20145;-72
2023/01/07 04:37:00;;;;;;;5.05;2.92;;;;;;;0.25;65.41;93092.16;2052660;69;20166;-72
2023/01/07 04:39:26;;;;;;;5.38;3.38;;;;;;;-0.17;67.82;93098.78;2053221;69;20228;-73
2023/01/07 04:41:52;;;;;;;5.32;3.55;;;;;;;-0.10;66.47;93089.84;2053725;70;20207;-73
2023/01/07 04:44:18;;;;;;;6.65;3.30;;;;;;;-0.16;66.47;93101.00;2054228;69;20160;-73
2023/01/07 04:46:44;;;;;;;6.05;3.38;;;;;;;-0.08;67.12;93093.56;2052699;70;20511;-73
2023/01/07 04:49:10;;;;;;;7.20;3.00;;;;;;;0.04;66.39;93093.34;2052512;70;20220;-72
2023/01/07 04:51:36;;;;;;;5.45;3.10;;;;;;;0.09;66.89;93086.94;2050676;70;20212;-72
2023/01/07 04:54:02;;;;;;;4.88;3.35;;;;;;;0.10;66.38;93083.66;2052682;69;20171;-73
2023/01/07 04:56:28;;;;;;;8.63;2.97;;;;;;;-0.07;66.81;93078.44;2052862;69;20161;-73
2023/01/07 04:58:54;;;;;;;5.22;3.30;;;;;;;-0.04;66.72;93079.41;2053792;70;20142;-72
2023/01/07 05:01:21;;;;;;;5.85;2.88;;;;;;;-0.10;66.24;93073.22;2052872;69;20326;-72
2023/01/07 05:03:47;;;;;;;4.82;3.10;;;;;;;-0.08;66.64;93081.75;2052998;69;20150;-72
2023/01/07 05:06:14;;;;;;;4.35;2.60;;;;;;;-0.04;66.99;93074.63;2050705;70;20201;-72
2023/01/07 05:08:40;;;;;;;7.93;3.80;;;;;;;-0.40;67.58;93074.28;2050412;70;20701;-72
2023/01/07 05:11:06;;;;;;;25.92;12.68;;;;;;;-0.24;67.80;93069.72;2050984;69;20181;-72
2023/01/07 05:13:34;;;;;;;28.58;13.95;;;;;;;-0.08;67.30;93074.19;2050297;70;20211;-73
2023/01/07 05:16:02;;;;;;;16.25;9.93;;;;;;;-0.10;67.33;93073.22;2050147;70;20150;-71
2023/01/07 05:18:30;;;;;;;15.38;9.60;;;;;;;0.03;66.62;93069.72;2047666;70;20146;-72
2023/01/07 05:20:57;;;;;;;20.40;11.45;;;;;;;-0.08;66.84;93065.16;2050330;70;20158;-73
2023/01/07 05:23:22;;;;;;;16.58;9.57;;;;;;;-0.10;67.27;93067.69;2050439;70;20169;-72
2023/01/07 05:25:50;;;;;;;14.55;8.25;;;;;;;-0.22;67.52;93058.13;2051003;69;20191;-73
2023/01/07 05:28:16;;;;;;;12.57;7.90;;;;;;;-0.23;67.59;93067.69;2050557;70;20558;-72
2023/01/07 05:30:42;;;;;;;12.18;7.30;;;;;;;-0.24;67.00;93061.41;2051119;70;20137;-72
2023/01/07 05:33:08;;;;;;;13.75;8.20;;;;;;;-0.17;67.18;93062.81;2051152;69;20483;-73
2023/01/07 05:35:34;;;;;;;14.93;8.77;;;;;;;-0.18;66.81;93061.31;2051098;69;20278;-73
2023/01/07 05:38:01;;;;;;;14.48;8.57;;;;;;;-0.15;67.10;93054.72;2050535;69;20186;-72
2023/01/07 05:40:27;;;;;;;23.88;14.13;;;;;;;-0.09;66.91;93047.03;2050389;70;20348;-73
2023/01/07 05:42:53;;;;;;;24.60;13.57;;;;;;;0.03;66.61;93055.88;2051080;70;20625;-72
2023/01/07 05:45:20;;;;;;;22.20;10.98;;;;;;;-0.02;66.84;93044.38;2050560;70;20150;-72
2023/01/07 05:47:47;;;;;;;17.02;9.55;;;;;;;0.04;66.39;93041.50;2050642;70;20162;-72
2023/01/07 05:50:12;;;;;;;6.18;2.85;;;;;;;-0.07;66.04;93042.47;2051239;70;20610;-72
2023/01/07 05:52:38;;;;;;;12.07;6.40;;;;;;;0.11;66.22;93037.34;2051244;70;20146;-72
2023/01/07 05:55:05;;;;;;;17.17;8.88;;;;;;;0.02;66.28;93040.53;2050893;70;20162;-72
2023/01/07 05:57:31;;;;;;;17.58;9.38;;;;;;;0.12;65.84;93039.56;2051198;69;20138;-72
2023/01/07 05:59:57;;;;;;;14.77;7.80;;;;;;;0.11;65.35;93032.53;2051123;70;20146;-74
2023/01/07 06:02:22;;;;;;;13.32;7.45;;;;;;;-0.02;65.78;93035.31;2051004;70;20285;-73
2023/01/07 06:04:48;;;;;;;16.75;9.02;;;;;;;-0.07;66.23;93034.16;2050504;70;20135;-73
2023/01/07 06:07:14;;;;;;;17.13;10.20;;;;;;;-0.07;65.96;93047.25;2051185;70;20157;-73
2023/01/07 06:09:39;;;;;;;17.23;9.75;;;;;;;-0.04;66.31;93041.41;2050936;70;20138;-73
2023/01/07 06:12:05;;;;;;;19.55;9.00;;;;;;;0.00;66.08;93041.09;2050489;70;20256;-72
2023/01/07 06:14:30;;;;;;;18.38;9.07;;;;;;;-0.05;65.78;93031.59;2050809;70;20238;-72
2023/01/07 06:16:56;;;;;;;11.85;6.75;;;;;;;0.04;65.36;93033.19;2051044;69;20138;-73
2023/01/07 06:19:22;;;;;;;10.45;5.50;;;;;;;0.06;65.64;93022.34;2050499;70;20157;-73
2023/01/07 06:21:48;;;;;;;18.27;8.40;;;;;;;0.18;65.50;93026.38;2050885;70;20173;-73
2023/01/07 06:24:14;;;;;;;16.40;9.02;;;;;;;0.20;64.98;93020.28;2050882;70;20141;-73
2023/01/07 06:26:39;;;;;;;10.18;5.75;;;;;;;0.14;65.54;93025.19;2050477;70;20535;-73
2023/01/07 06:29:06;;;;;;;21.52;11.48;;;;;;;-0.03;66.01;93029.06;2050905;70;20494;-73
2023/01/07 06:31:31;;;;;;;19.20;10.25;;;;;;;0.16;65.38;93026.16;2050422;70;20256;-72
2023/01/07 06:33:57;;;;;;;18.45;8.68;;;;;;;0.14;65.18;93027.97;2050420;70;20138;-73
2023/01/07 06:36:23;;;;;;;7.47;4.70;;;;;;;0.31;65.10;93020.03;2051008;70;20188;-73
2023/01/07 06:38:48;;;;;;;21.85;12.25;;;;;;;-0.06;66.55;93013.50;2051055;70;20245;-73
2023/01/07 06:41:14;;;;;;;22.08;12.50;;;;;;;-0.07;65.38;93023.09;2050857;69;20344;-73
2023/01/07 06:43:39;;;;;;;18.23;9.63;;;;;;;-0.06;65.95;93016.28;2050926;70;20152;-73
2023/01/07 06:46:05;;;;;;;16.95;8.88;;;;;;;-0.07;65.96;93019.59;2050903;70;20139;-73
2023/01/07 06:48:30;;;;;;;15.85;8.10;;;;;;;0.07;65.66;93012.75;2050901;70;20145;-73
2023/01/07 06:50:56;;;;;;;14.20;7.38;;;;;;;-0.07;65.82;93020.31;2050903;70;20185;-73
2023/01/07 06:53:22;;;;;;;14.65;7.57;;;;;;;0.03;65.67;93017.13;2050956;70;20241;-73
2023/01/07 06:55:48;;;;;;;17.50;8.80;;;;;;;0.10;66.14;93005.41;2050784;70;20229;-73
2023/01/07 06:58:14;;;;;;;17.35;9.75;;;;;;;0.09;65.02;93009.44;2050896;70;20566;-72
2023/01/07 07:00:40;;;;;;;17.35;10.93;;;;;;;0.01;65.32;93009.34;2051101;70;20158;-73
2023/01/07 07:03:05;;;;;;;33.28;18.08;;;;;;;0.05;65.87;93009.78;2050934;70;20158;-76
2023/01/07 07:05:32;;;;;;;26.98;15.80;;;;;;;0.05;66.43;93007.00;2050326;70;20158;-72
2023/01/07 07:07:59;;;;;;;26.60;14.90;;;;;;;0.03;65.52;93006.03;2050893;70;20650;-73
2023/01/07 07:10:27;;;;;;;22.45;11.77;;;;;;;0.23;65.55;93014.44;2050889;70;20170;-73
2023/01/07 07:12:53;;;;;;;21.88;12.73;;;;;;;0.28;64.67;93020.38;2050339;70;20157;-74
2023/01/07 07:15:18;;;;;;;18.23;9.95;;;;;;;0.20;64.46;93007.19;2050325;70;20150;-74
2023/01/07 07:17:44;;;;;;;25.02;13.20;;;;;;;-0.01;66.39;93014.66;2050974;70;20158;-73
2023/01/07 07:20:11;;;;;;;24.40;13.02;;;;;;;0.03;65.61;93020.63;2050891;70;20160;-74
2023/01/07 07:22:36;;;;;;;23.23;11.70;;;;;;;-0.03;65.47;93023.50;2050878;70;20158;-73
2023/01/07 07:25:03;;;;;;;23.25;11.52;;;;;;;0.06;66.27;93016.78;2050757;70;20133;-74
2023/01/07 07:27:28;;;;;;;21.98;10.05;;;;;;;0.01;65.83;93023.19;2051346;70;20633;-72
2023/01/07 07:29:54;;;;;;;46.63;19.67;;;;;;;-0.02;66.44;93019.47;2051477;69;20150;-74
2023/01/07 07:32:20;;;;;;;58.85;27.30;;;;;;;0.08;66.80;93017.00;2051363;69;20273;-73
2023/01/07 07:34:46;;;;;;;52.90;27.13;;;;;;;0.20;65.78;93018.25;2051408;70;20146;-73
2023/01/07 07:37:11;;;;;;;45.28;20.90;;;;;;;0.16;66.69;93022.63;2051363;70;20216;-73
2023/01/07 07:39:37;;;;;;;29.50;13.23;;;;;;;0.21;66.19;93019.75;2050810;70;20150;-73
2023/01/07 07:42:03;;;;;;;21.33;10.25;;;;;;;0.33;65.84;93011.94;2051354;69;20142;-73
2023/01/07 07:44:29;;;;;;;18.80;8.48;;;;;;;0.29;66.13;93010.78;2051411;70;20164;-73
2023/01/07 07:46:54;;;;;;;20.25;10.02;;;;;;;0.25;66.82;93013.88;2050701;70;20146;-73
2023/01/07 07:49:20;;;;;;;29.40;13.90;;;;;;;0.25;66.43;93005.56;2050770;70;20151;-73
2023/01/07 07:51:46;;;;;;;20.52;9.73;;;;;;;0.34;66.32;93002.34;2050769;70;20146;-73
2023/01/07 07:54:11;;;;;;;21.33;10.32;;;;;;;0.43;66.18;93007.44;2051112;70;20551;-76
2023/01/07 07:56:37;;;;;;;14.48;7.60;;;;;;;0.48;66.59;93001.03;2051341;69;20214;-73
2023/01/07 07:59:02;;;;;;;27.48;13.25;;;;;;;0.35;66.71;93014.91;2051367;69;20162;-73
2023/01/07 08:01:28;;;;;;;32.35;15.10;;;;;;;0.51;66.14;93004.75;2050710;70;20143;-73
2023/01/07 08:03:54;;;;;;;30.02;14.18;;;;;;;0.42;66.37;93003.19;2051372;69;20149;-72
2023/01/07 08:06:20;;;;;;;32.42;15.73;;;;;;;0.53;66.40;92996.63;2051362;70;20162;-73
2023/01/07 08:08:45;;;;;;;38.17;18.80;;;;;;;0.41;66.41;92992.63;2051396;69;20147;-74
2023/01/07 08:11:11;;;;;;;49.45;24.00;;;;;;;0.33;66.60;92989.78;2051228;70;20146;-74
2023/01/07 08:13:37;;;;;;;46.50;23.35;;;;;;;0.49;66.21;92985.13;2051262;70;20294;-74
2023/01/07 08:16:02;;;;;;;42.35;21.38;;;;;;;0.68;67.00;92988.47;2051268;70;20237;-74
2023/01/07 08:18:28;;;;;;;39.33;18.95;;;;;;;0.76;66.99;92994.81;2051344;70;20150;-74
2023/01/07 08:20:54;;;;;;;34.65;16.02;;;;;;;0.70;66.41;92987.94;2051224;69;20138;-74
2023/01/07 08:23:20;;;;;;;41.80;21.95;;;;;;;0.66;67.24;92982.00;2050689;70;20230;-74
2023/01/07 08:25:45;;;;;;;42.92;21.08;;;;;;;0.85;67.37;92987.34;2051163;70;20166;-76
2023/01/07 08:28:11;;;;;;;51.28;27.17;;;;;;;0.64;66.94;92985.31;2051192;70;20242;-73
2023/01/07 08:30:37;;;;;;;48.42;24.70;;;;;;;0.81;67.07;92992.47;2051298;70;20237;-75
2023/01/07 08:33:07;;;;;;;45.45;24.50;;;;;;;0.82;67.23;92986.38;2051326;70;20495;-73
2023/01/07 08:35:33;;;;;;;51.72;26.02;;;;;;;0.89;66.54;92982.94;2050702;70;20248;-73
2023/01/07 08:38:08;;;;;;;47.85;23.73;;;;;;;0.81;66.72;92982.13;2050499;70;20531;-72
2023/01/07 08:40:35;;;;;;;53.85;26.67;;;;;;;0.92;66.80;92972.81;2051083;70;20170;-72
2023/01/07 08:43:03;;;;;;;52.80;27.73;;;;;;;1.17;67.18;92975.94;2051294;69;20338;-72
2023/01/07 08:45:29;;;;;;;57.20;29.02;;;;;;;1.21;66.05;92960.44;2051227;70;20237;-72
2023/01/07 08:47:57;;;;;;;51.03;27.70;;;;;;;1.39;66.80;92972.59;2051325;70;20147;-74
2023/01/07 08:50:28;;;;;;;54.55;27.77;;;;;;;1.65;65.94;92968.88;2050752;70;20161;-73
2023/01/07 08:52:55;;;;;;;100.50;41.90;;;;;;;1.90;67.05;92968.44;2051217;70;20162;-73
2023/01/07 08:55:22;;;;;;;84.82;38.47;;;;;;;2.31;66.50;92966.75;2051075;69;20174;-72
2023/01/07 08:57:48;;;;;;;61.40;30.45;;;;;;;2.72;65.84;92969.25;2051221;70;20158;-73
2023/01/07 09:00:15;;;;;;;55.65;29.33;;;;;;;2.91;64.90;92971.69;2052615;69;20239;-73
2023/01/07 09:02:40;;;;;;;37.08;20.40;;;;;;;3.19;62.82;92970.03;2054497;69;20665;-73
2023/01/07 09:05:07;;;;;;;34.42;16.25;;;;;;;2.90;62.08;92972.25;2053868;69;20150;-74
2023/01/07 09:07:32;;;;;;;26.02;13.57;;;;;;;3.54;62.32;92983.00;2054403;69;20582;-73
2023/01/07 09:09:58;;;;;;;31.55;15.00;;;;;;;3.97;61.42;92969.38;2053717;69;20169;-72
2023/01/07 09:12:23;;;;;;;41.08;17.77;;;;;;;4.25;61.14;92971.88;2054527;69;20174;-71
2023/01/07 09:14:49;;;;;;;38.55;21.20;;;;;;;4.39;60.51;92968.84;2054433;69;20229;-73
2023/01/07 09:17:15;;;;;;;39.85;21.42;;;;;;;4.38;60.11;92973.69;2054406;69;20154;-72
2023/01/07 09:19:41;;;;;;;36.67;20.75;;;;;;;4.96;61.25;92968.91;2054362;69;20130;-73
2023/01/07 09:22:07;;;;;;;33.20;18.58;;;;;;;5.33;59.45;92964.34;2054480;69;20172;-74
2023/01/07 09:24:33;;;;;;;28.15;12.93;;;;;;;5.60;57.23;92964.50;2054319;69;20193;-72
2023/01/07 09:26:58;;;;;;;20.02;11.25;;;;;;;5.78;56.44;92956.16;2054331;69;20240;-73
2023/01/07 09:29:24;;;;;;;24.67;11.85;;;;;;;6.13;55.16;92958.97;2054478;69;20575;-74
2023/01/07 09:31:49;;;;;;;19.77;10.90;;;;;;;6.24;53.09;92953.63;2054377;69;20150;-73
2023/01/07 09:34:15;;;;;;;17.70;10.10;;;;;;;6.08;53.15;92960.69;2054435;69;20256;-73
2023/01/07 09:36:41;;;;;;;21.98;9.07;;;;;;;6.45;53.28;92949.66;2054396;69;20497;-73
2023/01/07 09:39:07;;;;;;;16.60;8.05;;;;;;;6.74;52.65;92958.25;2054377;69;20161;-76
2023/01/07 09:42:11;;;;;;;18.05;7.47;;;;;;;6.65;52.69;92959.66;2054363;69;20158;-75
2023/01/07 09:44:51;;;;;;;18.02;8.40;;;;;;;6.77;52.22;92941.00;2050025;70;20148;-72
2023/01/07 09:47:20;;;;;;;17.80;9.18;;;;;;;6.77;51.59;92946.63;2054479;69;20150;-72
2023/01/07 09:49:50;;;;;;;18.40;8.18;;;;;;;7.29;51.49;92943.63;2053808;69;20199;-74
2023/01/07 09:52:32;;;;;;;14.98;6.88;;;;;;;6.61;51.56;92939.75;2054306;69;20559;-76
2023/01/07 09:55:06;;;;;;;12.98;6.13;;;;;;;6.40;50.45;92942.25;2054277;69;20237;-74
2023/01/07 09:57:32;;;;;;;14.57;6.18;;;;;;;6.40;49.85;92936.66;2053809;69;20146;-76
2023/01/07 09:59:58;;;;;;;11.38;6.13;;;;;;;5.71;50.13;92931.81;2054382;69;20593;-76
2023/01/07 10:02:38;;;;;;;11.95;6.60;;;;;;;6.71;50.68;92920.22;2054297;69;20193;-73
2023/01/07 10:05:06;;;;;;;12.93;8.02;;;;;;;7.70;50.72;92913.06;2054308;69;20295;-75
2023/01/07 10:07:49;;;;;;;15.15;7.85;;;;;;;8.03;50.22;92912.66;2054317;69;20145;-73
2023/01/07 10:10:25;;;;;;;19.40;8.70;;;;;;;8.30;48.05;92901.28;2054228;69;20154;-73
2023/01/07 10:12:59;;;;;;;11.63;5.40;;;;;;;8.88;46.35;92895.59;2054325;69;20502;-72
2023/01/07 10:15:40;;;;;;;10.13;5.40;;;;;;;9.11;46.58;92886.63;2054335;69;20529;-74
2023/01/07 10:18:34;;;;;;;10.27;5.28;;;;;;;9.74;43.32;92878.94;2054379;69;20164;-72
2023/01/07 10:21:31;;;;;;;18.52;8.60;;;;;;;10.04;43.74;92874.59;2054223;69;20156;-75
2023/01/07 10:24:02;;;;;;;21.98;9.45;;;;;;;10.47;41.10;92871.72;2052593;70;20142;-73
2023/01/07 10:26:43;;;;;;;23.42;10.68;;;;;;;10.51;42.54;92867.09;2054234;69;20563;-75
2023/01/07 10:29:21;;;;;;;12.02;6.50;;;;;;;10.11;43.28;92854.66;2054280;69;20200;-73
2023/01/07 10:31:49;;;;;;;13.43;6.78;;;;;;;10.68;42.21;92849.88;2054178;69;20590;-73
2023/01/07 10:34:20;;;;;;;18.65;8.90;;;;;;;10.96;41.43;92832.53;2054224;69;20612;-75
2023/01/07 10:37:01;;;;;;;19.38;9.43;;;;;;;11.63;40.48;92834.47;2054191;69;20181;-76
2023/01/07 10:39:29;;;;;;;18.33;8.75;;;;;;;11.99;39.54;92831.59;2054287;69;20149;-75
2023/01/07 10:42:21;;;;;;;23.33;12.57;;;;;;;12.17;40.21;92827.00;2054295;69;20142;-75
2023/01/07 10:45:15;;;;;;;16.27;9.18;;;;;;;12.69;38.19;92820.00;2054210;69;20317;-77
2023/01/07 10:48:20;;;;;;;13.38;7.40;;;;;;;13.07;37.84;92814.97;2054177;69;20146;-75
2023/01/07 10:51:06;;;;;;;36.33;19.85;;;;;;;13.69;36.46;92813.97;2054239;69;20153;-75
2023/01/07 10:54:14;;;;;;;7.97;3.90;;;;;;;14.28;35.12;92810.53;2054331;69;20142;-75
2023/01/07 10:56:51;;;;;;;10.68;5.78;;;;;;;15.59;34.14;92800.31;2054229;69;20233;-76
2023/01/07 10:59:19;;;;;;;7.00;3.72;;;;;;;15.84;30.47;92794.31;2054238;69;20144;-73
2023/01/07 11:01:53;;;;;;;24.80;14.80;;;;;;;13.41;34.90;92796.28;2059300;69;20248;-74
2023/01/07 11:04:19;;;;;;;20.17;9.75;;;;;;;16.56;32.09;92795.16;2057667;70;20177;-75
2023/01/07 11:06:54;;;;;;;11.20;6.75;;;;;;;15.43;30.94;92795.34;2057569;69;20154;-75
2023/01/07 11:09:41;;;;;;;16.10;8.75;;;;;;;18.34;31.41;92791.06;2056159;69;20152;-75
2023/01/07 11:12:37;;;;;;;12.23;5.97;;;;;;;20.28;28.77;92786.16;2055898;69;20130;-76
2023/01/07 11:15:13;;;;;;;14.13;8.45;;;;;;;17.92;27.87;92779.66;2055786;69;20141;-77
2023/01/07 11:18:06;;;;;;;8.65;5.97;;;;;;;20.21;24.86;92780.97;2057806;69;20236;-75
2023/01/07 11:20:47;;;;;;;9.57;4.93;;;;;;;21.54;24.75;92788.50;2054792;69;20162;-76
2023/01/07 11:23:40;;;;;;;5.32;3.58;;;;;;;21.53;23.91;92781.31;2055213;69;20274;-74
2023/01/07 11:26:08;;;;;;;19.80;9.43;;;;;;;15.21;28.70;92768.84;2055200;69;20150;-75
2023/01/07 11:28:35;;;;;;;13.07;8.85;;;;;;;13.31;32.36;92759.75;2055410;69;20189;-74
2023/01/07 11:31:01;;;;;;;15.77;8.32;;;;;;;13.48;32.31;92747.91;2055290;69;20154;-75
2023/01/07 11:33:49;;;;;;;14.27;7.68;;;;;;;13.82;32.38;92730.44;2055270;69;20145;-74
2023/01/07 11:36:15;;;;;;;11.80;6.97;;;;;;;12.67;32.80;92729.50;2055168;69;20153;-74
2023/01/07 11:38:41;;;;;;;15.20;8.18;;;;;;;12.49;33.93;92725.72;2054876;69;20187;-74
2023/01/07 11:41:21;;;;;;;15.90;10.10;;;;;;;11.48;35.73;92713.75;2054511;70;20150;-74
2023/01/07 11:43:49;;;;;;;14.40;8.05;;;;;;;11.13;36.94;92714.59;2055296;69;20270;-73
2023/01/07 11:46:16;;;;;;;10.82;6.10;;;;;;;10.83;36.74;92719.13;2055180;69;20590;-73